sensor_id;sensor_type;location;lat;lon;timestamp;P1;durP1;ratioP1;P2;durP2;ratioP2
7057;SDS011;3570;43.080;25.628;2022-10-18T00:02:02;10.07;;;5.50;;
7057;SDS011;3570;43.080;25.628;2022-10-18T00:04:47;7.77;;;5.40;;
7057;SDS011;3570;43.080;25.628;2022-10-18T00:07:31;6.43;;;5.33;;
7057;SDS011;3570;43.080;25.628;2022-10-18T00:10:15;8.63;;;5.40;;
7057;SDS011;3570;43.080;25.628;2022-10-18T00:12:59;9.63;;;5.13;;
7057;SDS011;3570;43.080;25.628;2022-10-18T00:15:48;7.47;;;5.00;;
7057;SDS011;3570;43.080;25.628;2022-10-18T00:18:37;8.67;;;6.10;;
7057;SDS011;3570;43.080;25.628;2022-10-18T00:21:22;7.83;;;5.33;;
7057;SDS011;3570;43.080;25.628;2022-10-18T00:24:07;10.30;;;6.10;;
7057;SDS011;3570;43.080;25.628;2022-10-18T00:26:52;8.03;;;5.50;;
7057;SDS011;3570;43.080;25.628;2022-10-18T00:29:35;10.23;;;5.67;;
7057;SDS011;3570;43.080;25.628;2022-10-18T00:32:20;10.33;;;6.17;;
7057;SDS011;3570;43.080;25.628;2022-10-18T00:35:04;8.50;;;5.37;;
7057;SDS011;3570;43.080;25.628;2022-10-18T00:37:50;8.33;;;6.00;;
7057;SDS011;3570;43.080;25.628;2022-10-18T00:40:34;8.13;;;5.90;;
7057;SDS011;3570;43.080;25.628;2022-10-18T00:43:18;9.97;;;5.00;;
7057;SDS011;3570;43.080;25.628;2022-10-18T00:46:02;8.07;;;5.87;;
7057;SDS011;3570;43.080;25.628;2022-10-18T00:48:46;7.57;;;5.47;;
7057;SDS011;3570;43.080;25.628;2022-10-18T00:51:32;8.00;;;5.60;;
7057;SDS011;3570;43.080;25.628;2022-10-18T00:54:23;6.37;;;5.63;;
7057;SDS011;3570;43.080;25.628;2022-10-18T00:57:09;6.97;;;5.33;;
7057;SDS011;3570;43.080;25.628;2022-10-18T00:59:55;9.40;;;5.60;;
7057;SDS011;3570;43.080;25.628;2022-10-18T01:02:40;8.20;;;5.57;;
7057;SDS011;3570;43.080;25.628;2022-10-18T01:05:26;8.90;;;5.60;;
7057;SDS011;3570;43.080;25.628;2022-10-18T01:11:40;8.50;;;5.67;;
7057;SDS011;3570;43.080;25.628;2022-10-18T01:21:13;8.07;;;4.83;;
7057;SDS011;3570;43.080;25.628;2022-10-18T01:24:29;6.57;;;4.90;;
7057;SDS011;3570;43.080;25.628;2022-10-18T01:36:13;8.40;;;4.53;;
7057;SDS011;3570;43.080;25.628;2022-10-18T01:38:59;10.03;;;5.50;;
7057;SDS011;3570;43.080;25.628;2022-10-18T01:41:48;8.40;;;4.97;;
7057;SDS011;3570;43.080;25.628;2022-10-18T01:44:35;8.80;;;5.33;;
7057;SDS011;3570;43.080;25.628;2022-10-18T01:47:22;7.00;;;5.17;;
7057;SDS011;3570;43.080;25.628;2022-10-18T01:50:06;9.50;;;5.27;;
7057;SDS011;3570;43.080;25.628;2022-10-18T01:52:51;7.30;;;5.27;;
7057;SDS011;3570;43.080;25.628;2022-10-18T01:55:45;7.03;;;5.40;;
7057;SDS011;3570;43.080;25.628;2022-10-18T01:58:43;10.53;;;4.27;;
7057;SDS011;3570;43.080;25.628;2022-10-18T02:07:35;9.87;;;6.10;;
7057;SDS011;3570;43.080;25.628;2022-10-18T02:10:27;7.57;;;5.37;;
7057;SDS011;3570;43.080;25.628;2022-10-18T02:13:17;12.00;;;5.73;;
7057;SDS011;3570;43.080;25.628;2022-10-18T02:16:05;8.53;;;5.73;;
7057;SDS011;3570;43.080;25.628;2022-10-18T02:19:36;8.50;;;5.83;;
7057;SDS011;3570;43.080;25.628;2022-10-18T02:22:03;6.47;;;5.50;;
7057;SDS011;3570;43.080;25.628;2022-10-18T02:24:52;7.10;;;5.13;;
7057;SDS011;3570;43.080;25.628;2022-10-18T02:27:38;9.30;;;5.97;;
7057;SDS011;3570;43.080;25.628;2022-10-18T02:30:23;9.73;;;5.93;;
7057;SDS011;3570;43.080;25.628;2022-10-18T02:33:20;7.83;;;5.13;;
7057;SDS011;3570;43.080;25.628;2022-10-18T02:36:17;8.60;;;5.60;;
7057;SDS011;3570;43.080;25.628;2022-10-18T02:39:07;8.47;;;5.40;;
7057;SDS011;3570;43.080;25.628;2022-10-18T02:41:59;7.30;;;5.20;;
7057;SDS011;3570;43.080;25.628;2022-10-18T02:44:44;4.67;;;4.20;;
7057;SDS011;3570;43.080;25.628;2022-10-18T02:47:28;8.77;;;5.30;;
7057;SDS011;3570;43.080;25.628;2022-10-18T02:50:12;7.33;;;5.07;;
7057;SDS011;3570;43.080;25.628;2022-10-18T02:52:56;9.17;;;4.90;;
7057;SDS011;3570;43.080;25.628;2022-10-18T02:55:40;7.10;;;4.80;;
7057;SDS011;3570;43.080;25.628;2022-10-18T02:58:24;7.73;;;5.03;;
7057;SDS011;3570;43.080;25.628;2022-10-18T03:01:08;7.47;;;4.97;;
7057;SDS011;3570;43.080;25.628;2022-10-18T03:03:52;9.63;;;4.90;;
7057;SDS011;3570;43.080;25.628;2022-10-18T03:06:36;6.80;;;4.90;;
7057;SDS011;3570;43.080;25.628;2022-10-18T03:09:20;7.00;;;4.53;;
7057;SDS011;3570;43.080;25.628;2022-10-18T03:12:04;6.83;;;4.80;;
7057;SDS011;3570;43.080;25.628;2022-10-18T03:14:49;7.47;;;5.67;;
7057;SDS011;3570;43.080;25.628;2022-10-18T03:17:33;9.00;;;4.87;;
7057;SDS011;3570;43.080;25.628;2022-10-18T03:20:17;6.70;;;4.87;;
7057;SDS011;3570;43.080;25.628;2022-10-18T03:23:02;8.23;;;5.27;;
7057;SDS011;3570;43.080;25.628;2022-10-18T03:25:46;6.33;;;4.70;;
7057;SDS011;3570;43.080;25.628;2022-10-18T03:28:30;8.57;;;5.00;;
7057;SDS011;3570;43.080;25.628;2022-10-18T03:31:14;6.33;;;4.63;;
7057;SDS011;3570;43.080;25.628;2022-10-18T03:33:59;6.37;;;5.73;;
7057;SDS011;3570;43.080;25.628;2022-10-18T03:36:43;6.73;;;4.50;;
7057;SDS011;3570;43.080;25.628;2022-10-18T03:39:27;5.67;;;4.30;;
7057;SDS011;3570;43.080;25.628;2022-10-18T03:42:11;7.83;;;4.60;;
7057;SDS011;3570;43.080;25.628;2022-10-18T03:44:55;7.37;;;4.77;;
7057;SDS011;3570;43.080;25.628;2022-10-18T03:47:39;7.90;;;5.40;;
7057;SDS011;3570;43.080;25.628;2022-10-18T03:50:23;5.07;;;4.10;;
7057;SDS011;3570;43.080;25.628;2022-10-18T03:53:07;8.40;;;5.23;;
7057;SDS011;3570;43.080;25.628;2022-10-18T03:55:51;9.37;;;5.87;;
7057;SDS011;3570;43.080;25.628;2022-10-18T03:58:36;9.13;;;5.97;;
7057;SDS011;3570;43.080;25.628;2022-10-18T04:01:20;8.97;;;6.00;;
7057;SDS011;3570;43.080;25.628;2022-10-18T04:04:04;7.40;;;5.70;;
7057;SDS011;3570;43.080;25.628;2022-10-18T04:06:48;8.57;;;5.77;;
7057;SDS011;3570;43.080;25.628;2022-10-18T04:09:32;10.60;;;6.47;;
7057;SDS011;3570;43.080;25.628;2022-10-18T04:12:16;7.87;;;5.80;;
7057;SDS011;3570;43.080;25.628;2022-10-18T04:15:01;11.80;;;6.70;;
7057;SDS011;3570;43.080;25.628;2022-10-18T04:17:45;8.63;;;6.00;;
7057;SDS011;3570;43.080;25.628;2022-10-18T04:20:29;8.40;;;6.60;;
7057;SDS011;3570;43.080;25.628;2022-10-18T04:23:13;13.77;;;7.13;;
7057;SDS011;3570;43.080;25.628;2022-10-18T04:25:57;11.43;;;6.57;;
7057;SDS011;3570;43.080;25.628;2022-10-18T04:28:42;10.37;;;6.53;;
7057;SDS011;3570;43.080;25.628;2022-10-18T04:31:26;9.30;;;6.10;;
7057;SDS011;3570;43.080;25.628;2022-10-18T04:34:10;9.67;;;7.57;;
7057;SDS011;3570;43.080;25.628;2022-10-18T04:36:54;9.90;;;7.83;;
7057;SDS011;3570;43.080;25.628;2022-10-18T04:39:38;10.43;;;7.37;;
7057;SDS011;3570;43.080;25.628;2022-10-18T04:42:22;8.97;;;7.03;;
7057;SDS011;3570;43.080;25.628;2022-10-18T04:45:07;8.07;;;6.20;;
7057;SDS011;3570;43.080;25.628;2022-10-18T04:47:51;11.03;;;6.97;;
7057;SDS011;3570;43.080;25.628;2022-10-18T04:50:35;8.67;;;6.57;;
7057;SDS011;3570;43.080;25.628;2022-10-18T04:53:19;13.23;;;7.97;;
7057;SDS011;3570;43.080;25.628;2022-10-18T04:56:03;14.43;;;7.70;;
7057;SDS011;3570;43.080;25.628;2022-10-18T04:58:48;15.00;;;7.70;;
7057;SDS011;3570;43.080;25.628;2022-10-18T05:01:32;14.23;;;8.23;;
7057;SDS011;3570;43.080;25.628;2022-10-18T05:04:16;12.97;;;7.97;;
7057;SDS011;3570;43.080;25.628;2022-10-18T05:07:00;10.80;;;7.33;;
7057;SDS011;3570;43.080;25.628;2022-10-18T05:09:45;14.53;;;7.40;;
7057;SDS011;3570;43.080;25.628;2022-10-18T05:12:29;12.23;;;7.00;;
7057;SDS011;3570;43.080;25.628;2022-10-18T05:15:13;18.07;;;7.97;;
7057;SDS011;3570;43.080;25.628;2022-10-18T05:17:57;12.00;;;7.37;;
7057;SDS011;3570;43.080;25.628;2022-10-18T05:20:41;12.80;;;7.30;;
7057;SDS011;3570;43.080;25.628;2022-10-18T05:23:25;10.33;;;7.13;;
7057;SDS011;3570;43.080;25.628;2022-10-18T05:26:09;10.83;;;6.73;;
7057;SDS011;3570;43.080;25.628;2022-10-18T05:28:53;13.03;;;7.27;;
7057;SDS011;3570;43.080;25.628;2022-10-18T05:31:37;9.70;;;6.57;;
7057;SDS011;3570;43.080;25.628;2022-10-18T05:34:21;11.57;;;7.13;;
7057;SDS011;3570;43.080;25.628;2022-10-18T05:37:05;11.33;;;6.30;;
7057;SDS011;3570;43.080;25.628;2022-10-18T05:39:50;9.23;;;6.53;;
7057;SDS011;3570;43.080;25.628;2022-10-18T05:42:34;13.07;;;7.13;;
7057;SDS011;3570;43.080;25.628;2022-10-18T05:45:18;10.73;;;6.97;;
7057;SDS011;3570;43.080;25.628;2022-10-18T05:48:02;10.93;;;7.20;;
7057;SDS011;3570;43.080;25.628;2022-10-18T05:50:48;8.57;;;5.70;;
7057;SDS011;3570;43.080;25.628;2022-10-18T05:53:32;8.60;;;5.70;;
7057;SDS011;3570;43.080;25.628;2022-10-18T05:56:15;10.73;;;5.77;;
7057;SDS011;3570;43.080;25.628;2022-10-18T05:58:59;8.33;;;5.93;;
7057;SDS011;3570;43.080;25.628;2022-10-18T06:01:46;10.73;;;6.27;;
7057;SDS011;3570;43.080;25.628;2022-10-18T06:04:29;12.87;;;6.40;;
7057;SDS011;3570;43.080;25.628;2022-10-18T06:07:14;14.60;;;6.47;;
7057;SDS011;3570;43.080;25.628;2022-10-18T06:09:59;16.23;;;6.73;;
7057;SDS011;3570;43.080;25.628;2022-10-18T06:12:43;9.80;;;6.97;;
7057;SDS011;3570;43.080;25.628;2022-10-18T06:15:27;12.37;;;6.87;;
7057;SDS011;3570;43.080;25.628;2022-10-18T06:18:11;11.00;;;6.73;;
7057;SDS011;3570;43.080;25.628;2022-10-18T06:20:56;13.33;;;7.43;;
7057;SDS011;3570;43.080;25.628;2022-10-18T06:23:41;13.03;;;7.07;;
7057;SDS011;3570;43.080;25.628;2022-10-18T06:26:26;10.37;;;7.10;;
7057;SDS011;3570;43.080;25.628;2022-10-18T06:29:11;15.27;;;6.80;;
7057;SDS011;3570;43.080;25.628;2022-10-18T06:31:56;10.90;;;6.57;;
7057;SDS011;3570;43.080;25.628;2022-10-18T06:34:40;12.63;;;8.13;;
7057;SDS011;3570;43.080;25.628;2022-10-18T06:37:24;12.20;;;6.77;;
7057;SDS011;3570;43.080;25.628;2022-10-18T06:40:08;12.97;;;6.80;;
7057;SDS011;3570;43.080;25.628;2022-10-18T06:42:53;9.47;;;6.87;;
7057;SDS011;3570;43.080;25.628;2022-10-18T06:45:37;11.37;;;7.43;;
7057;SDS011;3570;43.080;25.628;2022-10-18T06:48:22;10.57;;;7.00;;
7057;SDS011;3570;43.080;25.628;2022-10-18T06:51:06;8.43;;;6.10;;
7057;SDS011;3570;43.080;25.628;2022-10-18T06:53:51;10.33;;;5.90;;
7057;SDS011;3570;43.080;25.628;2022-10-18T06:56:35;8.87;;;5.90;;
7057;SDS011;3570;43.080;25.628;2022-10-18T06:59:20;12.80;;;6.20;;
7057;SDS011;3570;43.080;25.628;2022-10-18T07:02:04;8.63;;;6.20;;
7057;SDS011;3570;43.080;25.628;2022-10-18T07:04:48;11.63;;;6.30;;
7057;SDS011;3570;43.080;25.628;2022-10-18T07:07:32;8.53;;;6.07;;
7057;SDS011;3570;43.080;25.628;2022-10-18T07:10:17;7.40;;;5.63;;
7057;SDS011;3570;43.080;25.628;2022-10-18T07:13:01;9.00;;;5.27;;
7057;SDS011;3570;43.080;25.628;2022-10-18T07:15:45;9.60;;;6.00;;
7057;SDS011;3570;43.080;25.628;2022-10-18T07:18:29;7.97;;;4.87;;
7057;SDS011;3570;43.080;25.628;2022-10-18T07:21:14;9.57;;;4.77;;
7057;SDS011;3570;43.080;25.628;2022-10-18T07:23:59;8.60;;;4.93;;
7057;SDS011;3570;43.080;25.628;2022-10-18T07:26:44;6.73;;;5.10;;
7057;SDS011;3570;43.080;25.628;2022-10-18T07:29:28;8.33;;;4.80;;
7057;SDS011;3570;43.080;25.628;2022-10-18T07:32:12;8.57;;;5.60;;
7057;SDS011;3570;43.080;25.628;2022-10-18T07:34:56;6.33;;;4.80;;
7057;SDS011;3570;43.080;25.628;2022-10-18T07:37:40;6.60;;;5.10;;
7057;SDS011;3570;43.080;25.628;2022-10-18T07:40:26;10.27;;;5.10;;
7057;SDS011;3570;43.080;25.628;2022-10-18T07:43:10;6.23;;;4.53;;
7057;SDS011;3570;43.080;25.628;2022-10-18T07:45:55;6.90;;;4.67;;
7057;SDS011;3570;43.080;25.628;2022-10-18T07:48:41;6.10;;;4.60;;
7057;SDS011;3570;43.080;25.628;2022-10-18T07:51:26;7.13;;;4.43;;
7057;SDS011;3570;43.080;25.628;2022-10-18T07:54:11;10.43;;;4.83;;
7057;SDS011;3570;43.080;25.628;2022-10-18T07:56:55;11.80;;;5.03;;
7057;SDS011;3570;43.080;25.628;2022-10-18T07:59:39;6.07;;;4.17;;
7057;SDS011;3570;43.080;25.628;2022-10-18T08:02:23;6.30;;;4.10;;
7057;SDS011;3570;43.080;25.628;2022-10-18T08:05:07;6.47;;;4.20;;
7057;SDS011;3570;43.080;25.628;2022-10-18T08:07:52;8.10;;;4.57;;
7057;SDS011;3570;43.080;25.628;2022-10-18T08:10:37;10.20;;;4.77;;
7057;SDS011;3570;43.080;25.628;2022-10-18T08:13:20;5.60;;;4.37;;
7057;SDS011;3570;43.080;25.628;2022-10-18T08:16:06;5.93;;;4.30;;
7057;SDS011;3570;43.080;25.628;2022-10-18T08:18:56;7.87;;;3.93;;
7057;SDS011;3570;43.080;25.628;2022-10-18T08:21:41;7.23;;;4.20;;
7057;SDS011;3570;43.080;25.628;2022-10-18T08:24:25;6.03;;;4.23;;
7057;SDS011;3570;43.080;25.628;2022-10-18T08:27:09;5.40;;;3.77;;
7057;SDS011;3570;43.080;25.628;2022-10-18T08:29:54;6.57;;;4.43;;
7057;SDS011;3570;43.080;25.628;2022-10-18T08:32:38;5.03;;;3.63;;
7057;SDS011;3570;43.080;25.628;2022-10-18T08:35:22;5.73;;;4.10;;
7057;SDS011;3570;43.080;25.628;2022-10-18T08:38:06;9.37;;;4.37;;
7057;SDS011;3570;43.080;25.628;2022-10-18T08:40:54;7.67;;;4.60;;
7057;SDS011;3570;43.080;25.628;2022-10-18T08:43:39;4.60;;;3.60;;
7057;SDS011;3570;43.080;25.628;2022-10-18T08:46:29;6.40;;;3.73;;
7057;SDS011;3570;43.080;25.628;2022-10-18T08:49:27;6.30;;;3.30;;
7057;SDS011;3570;43.080;25.628;2022-10-18T09:01:12;3.70;;;3.10;;
7057;SDS011;3570;43.080;25.628;2022-10-18T09:10:30;8.87;;;3.00;;
7057;SDS011;3570;43.080;25.628;2022-10-18T09:22:27;3.77;;;3.00;;
7057;SDS011;3570;43.080;25.628;2022-10-18T09:25:35;3.40;;;2.97;;
7057;SDS011;3570;43.080;25.628;2022-10-18T09:37:26;3.70;;;2.83;;
7057;SDS011;3570;43.080;25.628;2022-10-18T09:40:14;4.50;;;2.37;;
7057;SDS011;3570;43.080;25.628;2022-10-18T09:43:13;4.60;;;3.03;;
7057;SDS011;3570;43.080;25.628;2022-10-18T09:46:03;4.40;;;3.00;;
7057;SDS011;3570;43.080;25.628;2022-10-18T09:48:52;4.30;;;2.72;;
7057;SDS011;3570;43.080;25.628;2022-10-18T09:51:59;5.35;;;2.70;;
7057;SDS011;3570;43.080;25.628;2022-10-18T09:54:58;5.43;;;3.17;;
7057;SDS011;3570;43.080;25.628;2022-10-18T09:57:51;3.28;;;2.60;;
7057;SDS011;3570;43.080;25.628;2022-10-18T10:00:46;4.28;;;2.55;;
7057;SDS011;3570;43.080;25.628;2022-10-18T10:03:32;3.67;;;2.78;;
7057;SDS011;3570;43.080;25.628;2022-10-18T10:06:25;6.03;;;2.83;;
7057;SDS011;3570;43.080;25.628;2022-10-18T10:09:25;4.78;;;2.60;;
7057;SDS011;3570;43.080;25.628;2022-10-18T10:15:52;2.75;;;2.13;;
7057;SDS011;3570;43.080;25.628;2022-10-18T10:18:47;2.40;;;2.20;;
7057;SDS011;3570;43.080;25.628;2022-10-18T10:24:24;4.13;;;2.50;;
7057;SDS011;3570;43.080;25.628;2022-10-18T10:27:27;3.85;;;2.50;;
7057;SDS011;3570;43.080;25.628;2022-10-18T10:30:23;4.68;;;3.30;;
7057;SDS011;3570;43.080;25.628;2022-10-18T10:36:18;4.45;;;2.63;;
7057;SDS011;3570;43.080;25.628;2022-10-18T10:39:05;3.22;;;2.70;;
7057;SDS011;3570;43.080;25.628;2022-10-18T10:42:10;2.88;;;2.10;;
7057;SDS011;3570;43.080;25.628;2022-10-18T10:44:56;3.13;;;2.42;;
7057;SDS011;3570;43.080;25.628;2022-10-18T10:47:45;4.38;;;3.15;;
7057;SDS011;3570;43.080;25.628;2022-10-18T10:55:41;6.93;;;2.10;;
7057;SDS011;3570;43.080;25.628;2022-10-18T10:58:26;3.47;;;2.40;;
7057;SDS011;3570;43.080;25.628;2022-10-18T11:01:27;5.43;;;3.30;;
7057;SDS011;3570;43.080;25.628;2022-10-18T11:04:23;3.92;;;2.40;;
7057;SDS011;3570;43.080;25.628;2022-10-18T11:15:56;2.75;;;2.38;;
7057;SDS011;3570;43.080;25.628;2022-10-18T11:21:32;9.70;;;3.00;;
7057;SDS011;3570;43.080;25.628;2022-10-18T11:24:16;4.75;;;3.80;;
7057;SDS011;3570;43.080;25.628;2022-10-18T11:33:14;3.97;;;3.30;;
7057;SDS011;3570;43.080;25.628;2022-10-18T11:36:23;3.92;;;2.58;;
7057;SDS011;3570;43.080;25.628;2022-10-18T11:42:12;3.13;;;2.20;;
7057;SDS011;3570;43.080;25.628;2022-10-18T12:00:31;4.00;;;3.60;;
7057;SDS011;3570;43.080;25.628;2022-10-18T12:03:26;8.80;;;3.85;;
7057;SDS011;3570;43.080;25.628;2022-10-18T12:06:18;4.15;;;3.75;;
7057;SDS011;3570;43.080;25.628;2022-10-18T12:12:13;2.08;;;1.88;;
7057;SDS011;3570;43.080;25.628;2022-10-18T12:15:06;3.40;;;3.10;;
7057;SDS011;3570;43.080;25.628;2022-10-18T12:17:59;2.80;;;2.45;;
7057;SDS011;3570;43.080;25.628;2022-10-18T12:20:56;4.53;;;4.13;;
7057;SDS011;3570;43.080;25.628;2022-10-18T12:23:52;2.90;;;2.70;;
7057;SDS011;3570;43.080;25.628;2022-10-18T12:26:40;3.53;;;2.92;;
7057;SDS011;3570;43.080;25.628;2022-10-18T12:32:33;2.58;;;2.20;;
7057;SDS011;3570;43.080;25.628;2022-10-18T12:35:19;3.53;;;2.13;;
7057;SDS011;3570;43.080;25.628;2022-10-18T12:38:11;3.95;;;3.55;;
7057;SDS011;3570;43.080;25.628;2022-10-18T12:41:02;4.95;;;2.10;;
7057;SDS011;3570;43.080;25.628;2022-10-18T12:47:19;2.80;;;2.50;;
7057;SDS011;3570;43.080;25.628;2022-10-18T12:53:26;5.15;;;2.50;;
7057;SDS011;3570;43.080;25.628;2022-10-18T13:04:48;5.18;;;2.80;;
7057;SDS011;3570;43.080;25.628;2022-10-18T13:07:36;5.25;;;2.50;;
7057;SDS011;3570;43.080;25.628;2022-10-18T13:19:36;2.80;;;1.92;;
7057;SDS011;3570;43.080;25.628;2022-10-18T13:25:56;2.90;;;2.40;;
7057;SDS011;3570;43.080;25.628;2022-10-18T13:28:56;3.45;;;3.15;;
7057;SDS011;3570;43.080;25.628;2022-10-18T13:34:31;2.15;;;1.90;;
7057;SDS011;3570;43.080;25.628;2022-10-18T13:37:24;3.28;;;2.10;;
7057;SDS011;3570;43.080;25.628;2022-10-18T13:40:14;3.75;;;2.10;;
7057;SDS011;3570;43.080;25.628;2022-10-18T13:49:22;2.33;;;2.10;;
7057;SDS011;3570;43.080;25.628;2022-10-18T13:55:51;2.47;;;1.77;;
7057;SDS011;3570;43.080;25.628;2022-10-18T14:08:04;5.22;;;1.67;;
7057;SDS011;3570;43.080;25.628;2022-10-18T14:14:03;2.53;;;2.20;;
7057;SDS011;3570;43.080;25.628;2022-10-18T14:20:14;2.42;;;1.83;;
7057;SDS011;3570;43.080;25.628;2022-10-18T14:23:19;2.95;;;1.85;;
7057;SDS011;3570;43.080;25.628;2022-10-18T14:26:12;2.90;;;2.20;;
7057;SDS011;3570;43.080;25.628;2022-10-18T14:29:02;3.80;;;1.85;;
7057;SDS011;3570;43.080;25.628;2022-10-18T14:31:58;1.80;;;1.55;;
7057;SDS011;3570;43.080;25.628;2022-10-18T14:34:43;1.77;;;1.63;;
7057;SDS011;3570;43.080;25.628;2022-10-18T14:37:29;4.40;;;2.10;;
7057;SDS011;3570;43.080;25.628;2022-10-18T14:43:22;3.53;;;2.15;;
7057;SDS011;3570;43.080;25.628;2022-10-18T14:49:03;3.03;;;2.10;;
7057;SDS011;3570;43.080;25.628;2022-10-18T14:51:48;3.97;;;1.90;;
7057;SDS011;3570;43.080;25.628;2022-10-18T14:54:36;1.83;;;1.50;;
7057;SDS011;3570;43.080;25.628;2022-10-18T14:57:25;2.50;;;2.00;;
7057;SDS011;3570;43.080;25.628;2022-10-18T15:00:24;3.67;;;2.15;;
7057;SDS011;3570;43.080;25.628;2022-10-18T15:03:19;2.70;;;1.80;;
7057;SDS011;3570;43.080;25.628;2022-10-18T15:06:04;3.15;;;1.80;;
7057;SDS011;3570;43.080;25.628;2022-10-18T15:08:52;3.55;;;2.25;;
7057;SDS011;3570;43.080;25.628;2022-10-18T15:11:39;4.35;;;2.15;;
7057;SDS011;3570;43.080;25.628;2022-10-18T15:14:26;4.40;;;2.72;;
7057;SDS011;3570;43.080;25.628;2022-10-18T15:17:45;4.30;;;2.60;;
7057;SDS011;3570;43.080;25.628;2022-10-18T15:23:21;3.00;;;2.70;;
7057;SDS011;3570;43.080;25.628;2022-10-18T15:28:44;4.67;;;2.30;;
7057;SDS011;3570;43.080;25.628;2022-10-18T15:31:38;5.60;;;3.10;;
7057;SDS011;3570;43.080;25.628;2022-10-18T15:34:26;3.73;;;3.07;;
7057;SDS011;3570;43.080;25.628;2022-10-18T15:37:22;4.80;;;2.97;;
7057;SDS011;3570;43.080;25.628;2022-10-18T15:43:05;5.37;;;4.10;;
7057;SDS011;3570;43.080;25.628;2022-10-18T15:46:27;5.80;;;3.23;;
7057;SDS011;3570;43.080;25.628;2022-10-18T15:52:39;9.73;;;4.97;;
7057;SDS011;3570;43.080;25.628;2022-10-18T15:55:43;11.97;;;5.23;;
7057;SDS011;3570;43.080;25.628;2022-10-18T15:58:44;8.53;;;4.13;;
7057;SDS011;3570;43.080;25.628;2022-10-18T16:01:19;13.37;;;5.17;;
7057;SDS011;3570;43.080;25.628;2022-10-18T16:03:57;6.63;;;4.40;;
7057;SDS011;3570;43.080;25.628;2022-10-18T16:06:25;10.27;;;5.00;;
7057;SDS011;3570;43.080;25.628;2022-10-18T16:08:51;7.73;;;5.03;;
7057;SDS011;3570;43.080;25.628;2022-10-18T16:11:19;9.07;;;5.23;;
7057;SDS011;3570;43.080;25.628;2022-10-18T16:13:47;11.47;;;5.13;;
7057;SDS011;3570;43.080;25.628;2022-10-18T16:16:18;7.93;;;4.77;;
7057;SDS011;3570;43.080;25.628;2022-10-18T16:18:48;7.33;;;4.07;;
7057;SDS011;3570;43.080;25.628;2022-10-18T16:21:25;10.70;;;4.97;;
7057;SDS011;3570;43.080;25.628;2022-10-18T16:23:58;7.00;;;5.20;;
7057;SDS011;3570;43.080;25.628;2022-10-18T16:26:25;11.67;;;5.77;;
7057;SDS011;3570;43.080;25.628;2022-10-18T16:28:51;13.13;;;6.40;;
7057;SDS011;3570;43.080;25.628;2022-10-18T16:31:19;10.63;;;6.47;;
7057;SDS011;3570;43.080;25.628;2022-10-18T16:33:53;10.07;;;5.20;;
7057;SDS011;3570;43.080;25.628;2022-10-18T16:36:24;13.90;;;6.63;;
7057;SDS011;3570;43.080;25.628;2022-10-18T16:38:53;9.60;;;5.50;;
7057;SDS011;3570;43.080;25.628;2022-10-18T16:41:19;10.53;;;6.23;;
7057;SDS011;3570;43.080;25.628;2022-10-18T16:43:54;16.70;;;6.80;;
7057;SDS011;3570;43.080;25.628;2022-10-18T16:46:58;18.07;;;8.17;;
7057;SDS011;3570;43.080;25.628;2022-10-18T16:49:31;14.53;;;6.53;;
7057;SDS011;3570;43.080;25.628;2022-10-18T16:51:57;20.37;;;7.63;;
7057;SDS011;3570;43.080;25.628;2022-10-18T16:54:26;16.17;;;9.83;;
7057;SDS011;3570;43.080;25.628;2022-10-18T16:56:55;60.23;;;26.03;;
7057;SDS011;3570;43.080;25.628;2022-10-18T16:59:26;34.07;;;18.07;;
7057;SDS011;3570;43.080;25.628;2022-10-18T17:01:53;27.93;;;11.50;;
7057;SDS011;3570;43.080;25.628;2022-10-18T17:04:19;14.93;;;8.87;;
7057;SDS011;3570;43.080;25.628;2022-10-18T17:06:45;19.37;;;9.77;;
7057;SDS011;3570;43.080;25.628;2022-10-18T17:09:13;19.37;;;9.37;;
7057;SDS011;3570;43.080;25.628;2022-10-18T17:11:40;14.47;;;8.00;;
7057;SDS011;3570;43.080;25.628;2022-10-18T17:14:09;17.63;;;8.13;;
7057;SDS011;3570;43.080;25.628;2022-10-18T17:16:40;15.90;;;7.93;;
7057;SDS011;3570;43.080;25.628;2022-10-18T17:19:09;16.60;;;6.57;;
7057;SDS011;3570;43.080;25.628;2022-10-18T17:21:39;9.90;;;6.10;;
7057;SDS011;3570;43.080;25.628;2022-10-18T17:24:04;15.80;;;7.20;;
7057;SDS011;3570;43.080;25.628;2022-10-18T17:26:30;20.87;;;7.40;;
7057;SDS011;3570;43.080;25.628;2022-10-18T17:29:04;11.20;;;6.23;;
7057;SDS011;3570;43.080;25.628;2022-10-18T17:31:55;15.40;;;7.73;;
7057;SDS011;3570;43.080;25.628;2022-10-18T17:34:24;12.20;;;7.00;;
7057;SDS011;3570;43.080;25.628;2022-10-18T17:39:26;15.20;;;6.43;;
7057;SDS011;3570;43.080;25.628;2022-10-18T17:44:57;19.03;;;7.20;;
7057;SDS011;3570;43.080;25.628;2022-10-18T17:47:26;15.00;;;8.00;;
7057;SDS011;3570;43.080;25.628;2022-10-18T17:49:56;14.63;;;8.67;;
7057;SDS011;3570;43.080;25.628;2022-10-18T17:52:31;20.70;;;8.17;;
7057;SDS011;3570;43.080;25.628;2022-10-18T17:55:21;16.60;;;7.73;;
7057;SDS011;3570;43.080;25.628;2022-10-18T17:57:47;16.40;;;8.10;;
7057;SDS011;3570;43.080;25.628;2022-10-18T18:00:18;15.17;;;7.37;;
7057;SDS011;3570;43.080;25.628;2022-10-18T18:02:44;10.47;;;6.73;;
7057;SDS011;3570;43.080;25.628;2022-10-18T18:05:10;13.60;;;7.30;;
7057;SDS011;3570;43.080;25.628;2022-10-18T18:07:36;11.13;;;6.40;;
7057;SDS011;3570;43.080;25.628;2022-10-18T18:10:02;12.20;;;6.47;;
7057;SDS011;3570;43.080;25.628;2022-10-18T18:12:29;9.03;;;5.97;;
7057;SDS011;3570;43.080;25.628;2022-10-18T18:14:54;10.93;;;6.17;;
7057;SDS011;3570;43.080;25.628;2022-10-18T18:17:23;11.77;;;6.07;;
7057;SDS011;3570;43.080;25.628;2022-10-18T18:19:54;12.17;;;6.53;;
7057;SDS011;3570;43.080;25.628;2022-10-18T18:22:29;14.53;;;6.47;;
7057;SDS011;3570;43.080;25.628;2022-10-18T18:24:55;13.87;;;6.77;;
7057;SDS011;3570;43.080;25.628;2022-10-18T18:27:21;15.00;;;6.40;;
7057;SDS011;3570;43.080;25.628;2022-10-18T18:29:46;11.50;;;6.33;;
7057;SDS011;3570;43.080;25.628;2022-10-18T18:32:12;14.10;;;7.17;;
7057;SDS011;3570;43.080;25.628;2022-10-18T18:34:38;9.57;;;6.20;;
7057;SDS011;3570;43.080;25.628;2022-10-18T18:37:28;12.07;;;5.63;;
7057;SDS011;3570;43.080;25.628;2022-10-18T18:39:57;8.47;;;5.80;;
7057;SDS011;3570;43.080;25.628;2022-10-18T18:42:23;11.13;;;4.87;;
7057;SDS011;3570;43.080;25.628;2022-10-18T18:44:49;12.00;;;6.00;;
7057;SDS011;3570;43.080;25.628;2022-10-18T18:47:20;10.13;;;5.67;;
7057;SDS011;3570;43.080;25.628;2022-10-18T18:49:47;13.63;;;6.17;;
7057;SDS011;3570;43.080;25.628;2022-10-18T18:52:18;13.17;;;6.33;;
7057;SDS011;3570;43.080;25.628;2022-10-18T18:54:46;14.90;;;8.50;;
7057;SDS011;3570;43.080;25.628;2022-10-18T18:57:15;13.60;;;6.83;;
7057;SDS011;3570;43.080;25.628;2022-10-18T18:59:51;13.27;;;6.63;;
7057;SDS011;3570;43.080;25.628;2022-10-18T19:02:21;10.60;;;7.07;;
7057;SDS011;3570;43.080;25.628;2022-10-18T19:04:57;12.07;;;6.67;;
7057;SDS011;3570;43.080;25.628;2022-10-18T19:07:31;13.53;;;6.57;;
7057;SDS011;3570;43.080;25.628;2022-10-18T19:10:05;11.47;;;6.57;;
7057;SDS011;3570;43.080;25.628;2022-10-18T19:12:32;8.57;;;5.80;;
7057;SDS011;3570;43.080;25.628;2022-10-18T19:14:58;16.60;;;6.73;;
7057;SDS011;3570;43.080;25.628;2022-10-18T19:17:23;10.57;;;6.60;;
7057;SDS011;3570;43.080;25.628;2022-10-18T19:19:50;14.53;;;6.77;;
7057;SDS011;3570;43.080;25.628;2022-10-18T19:22:19;15.63;;;6.50;;
7057;SDS011;3570;43.080;25.628;2022-10-18T19:24:44;13.37;;;6.80;;
7057;SDS011;3570;43.080;25.628;2022-10-18T19:27:10;15.00;;;7.27;;
7057;SDS011;3570;43.080;25.628;2022-10-18T19:29:37;12.80;;;6.60;;
7057;SDS011;3570;43.080;25.628;2022-10-18T19:32:05;13.33;;;7.13;;
7057;SDS011;3570;43.080;25.628;2022-10-18T19:34:32;14.23;;;6.30;;
7057;SDS011;3570;43.080;25.628;2022-10-18T19:36:59;13.27;;;7.03;;
7057;SDS011;3570;43.080;25.628;2022-10-18T19:39:27;11.30;;;6.30;;
7057;SDS011;3570;43.080;25.628;2022-10-18T19:41:55;12.50;;;6.57;;
7057;SDS011;3570;43.080;25.628;2022-10-18T19:44:24;11.10;;;5.97;;
7057;SDS011;3570;43.080;25.628;2022-10-18T19:46:52;10.17;;;6.13;;
7057;SDS011;3570;43.080;25.628;2022-10-18T19:49:19;13.00;;;6.67;;